Time;durP1;ratioP1;P1;durP2;ratioP2;P2;SDS_P1;SDS_P2;PMS_P1;PMS_P2;Temp;Humidity;BMP_temperature;BMP_pressure;BME280_temperature;BME280_humidity;BME280_pressure;Samples;Min_cycle;Max_cycle;Signal;HPM_P1;HPM_P2
2021/11/22 00:02:23;;;;;;;9.52;1.80;;;;;;;3.96;58.74;101379.88;8010469;28;20114;-68
2021/11/22 00:06:14;;;;;;;6.88;2.28;;;;;;;4.01;58.58;101401.38;8010328;28;20375;-68
2021/11/22 00:10:06;;;;;;;1.90;1.35;;;;;;;4.00;58.80;101404.00;8010438;28;20521;-68
2021/11/22 00:13:56;;;;;;;5.22;1.67;;;;;;;4.00;58.80;101394.47;8010207;28;20036;-68
2021/11/22 00:17:47;;;;;;;7.43;1.92;;;;;;;3.97;59.04;101391.97;8010007;28;20024;-68
2021/11/22 00:21:38;;;;;;;4.40;1.55;;;;;;;4.04;58.89;101398.69;8009986;28;20021;-68
2021/11/22 00:25:29;;;;;;;5.70;1.38;;;;;;;4.06;59.12;101398.66;8009310;28;20846;-68
2021/11/22 00:29:19;;;;;;;3.95;1.85;;;;;;;4.08;58.99;101408.09;8003265;28;20033;-68
2021/11/22 00:33:20;;;;;;;6.57;1.85;;;;;;;4.06;59.17;101394.31;8008171;28;20037;-68
2021/11/22 00:37:41;;;;;;;12.73;1.67;;;;;;;4.09;59.08;101406.34;7993862;28;20045;-68
2021/11/22 00:41:32;;;;;;;5.78;2.47;;;;;;;4.07;58.99;101415.94;8009513;28;20078;-68
2021/11/22 00:45:22;;;;;;;3.65;1.48;;;;;;;3.98;58.95;101411.03;8007200;28;20087;-68
2021/11/22 00:49:13;;;;;;;6.55;1.55;;;;;;;4.02;58.76;101430.84;8009550;28;20040;-68
2021/11/22 00:53:05;;;;;;;6.85;2.00;;;;;;;3.97;58.71;101438.78;8008684;28;20033;-68
2021/11/22 00:56:55;;;;;;;3.03;1.70;;;;;;;3.94;58.81;101432.81;8008805;28;20029;-68
2021/11/22 01:00:46;;;;;;;4.63;1.58;;;;;;;3.90;58.69;101446.78;8008839;28;20044;-68
2021/11/22 01:04:37;;;;;;;4.05;1.40;;;;;;;3.85;58.78;101449.53;8008699;28;20031;-68
2021/11/22 01:08:28;;;;;;;5.97;1.65;;;;;;;3.82;58.70;101451.38;8008814;28;20113;-68
2021/11/22 01:12:18;;;;;;;3.55;1.55;;;;;;;3.78;58.75;101472.22;8008177;28;20088;-68
2021/11/22 01:16:09;;;;;;;3.90;1.40;;;;;;;3.75;58.79;101479.25;8007075;28;20078;-68
2021/11/22 01:19:59;;;;;;;7.47;1.88;;;;;;;3.73;58.67;101475.88;8008457;28;20783;-68
2021/11/22 01:23:50;;;;;;;4.53;1.30;;;;;;;3.74;59.34;101481.00;8006784;28;20148;-68
2021/11/22 01:27:41;;;;;;;5.50;1.85;;;;;;;3.75;59.08;101487.06;8008278;28;20130;-68
2021/11/22 01:31:31;;;;;;;3.33;1.48;;;;;;;3.79;59.31;101499.06;8008109;28;20186;-68
2021/11/22 01:35:23;;;;;;;4.22;1.50;;;;;;;3.85;59.17;101498.06;8007248;28;20028;-68
2021/11/22 01:39:14;;;;;;;7.47;1.60;;;;;;;3.89;59.19;101504.88;8007739;28;20029;-68
2021/11/22 01:43:04;;;;;;;5.82;1.50;;;;;;;3.93;59.48;101506.47;8006968;28;20056;-68
2021/11/22 01:46:55;;;;;;;6.10;1.85;;;;;;;3.98;59.57;101521.06;8007484;28;20031;-68
2021/11/22 01:50:47;;;;;;;8.05;1.92;;;;;;;3.94;59.57;101511.66;8006389;28;20041;-68
2021/11/22 01:54:38;;;;;;;8.18;3.13;;;;;;;4.07;59.53;101527.75;8006667;28;20052;-68
2021/11/22 01:58:29;;;;;;;7.47;2.20;;;;;;;4.07;59.66;101528.56;8006683;28;20116;-68
2021/11/22 02:02:20;;;;;;;8.48;2.83;;;;;;;4.11;59.73;101537.16;8006215;28;20021;-68
2021/11/22 02:06:11;;;;;;;9.40;3.63;;;;;;;4.14;59.90;101544.88;8006713;28;20529;-68
2021/11/22 02:10:04;;;;;;;7.93;3.47;;;;;;;4.19;59.98;101548.19;8005875;28;20024;-68
2021/11/22 02:13:55;;;;;;;10.35;4.55;;;;;;;4.22;59.93;101551.56;8006508;28;20037;-68
2021/11/22 02:17:47;;;;;;;8.98;4.95;;;;;;;4.24;60.11;101551.50;8006531;28;20025;-67
2021/11/22 02:21:38;;;;;;;15.77;7.30;;;;;;;4.22;60.13;101543.75;8007011;28;20029;-68
2021/11/22 02:25:31;;;;;;;13.73;6.88;;;;;;;4.26;60.22;101558.38;8006130;28;20136;-67
2021/11/22 02:29:21;;;;;;;10.40;7.00;;;;;;;4.23;60.48;101560.22;8006591;28;20371;-68
2021/11/22 02:33:19;;;;;;;12.00;7.28;;;;;;;4.30;60.29;101579.94;8000014;28;20452;-67
2021/11/22 02:37:10;;;;;;;11.25;6.78;;;;;;;4.32;60.42;101579.91;8005836;28;20052;-67
2021/11/22 02:41:03;;;;;;;11.15;6.93;;;;;;;4.35;60.41;101587.63;8006167;28;20035;-67
2021/11/22 02:44:55;;;;;;;13.15;6.90;;;;;;;4.37;60.50;101586.66;8005811;28;20017;-68
2021/11/22 02:48:45;;;;;;;12.15;6.95;;;;;;;4.40;60.44;101589.16;8005914;28;20040;-67
2021/11/22 02:52:36;;;;;;;11.70;6.53;;;;;;;4.43;60.72;101590.84;8005536;28;20032;-68
2021/11/22 02:56:33;;;;;;;10.85;7.22;;;;;;;4.45;60.64;101594.25;8005858;28;20035;-68
2021/11/22 03:00:27;;;;;;;14.45;7.38;;;;;;;4.42;60.81;101591.75;8005886;28;20059;-67
2021/11/22 03:04:18;;;;;;;11.05;7.15;;;;;;;4.49;60.71;101607.13;8005186;28;20497;-67
2021/11/22 03:08:08;;;;;;;9.98;6.28;;;;;;;4.51;60.67;101594.94;8006171;28;20039;-67
2021/11/22 03:12:03;;;;;;;10.05;6.55;;;;;;;4.54;60.56;101607.00;8005244;28;20064;-68
2021/11/22 03:15:53;;;;;;;11.32;6.63;;;;;;;4.57;60.60;101614.69;8011735;28;20632;-68
2021/11/22 03:19:44;;;;;;;12.00;7.22;;;;;;;4.57;60.78;101620.75;8012081;28;20478;-67
2021/11/22 03:23:37;;;;;;;15.90;6.13;;;;;;;4.61;60.66;101616.31;8011475;28;20025;-68
2021/11/22 03:27:30;;;;;;;9.18;5.45;;;;;;;4.64;60.73;101622.31;8011715;28;20490;-67
2021/11/22 03:31:20;;;;;;;9.70;6.47;;;;;;;4.68;60.55;101630.88;8010819;28;20056;-67
2021/11/22 03:35:13;;;;;;;9.77;6.05;;;;;;;4.70;60.94;101631.66;8010902;28;20037;-68
2021/11/22 03:39:25;;;;;;;9.15;5.90;;;;;;;4.71;60.53;101639.44;8012158;28;20029;-68
2021/11/22 03:43:26;;;;;;;11.10;5.60;;;;;;;4.72;60.70;101640.28;8011905;28;20032;-68
2021/11/22 03:47:16;;;;;;;9.80;5.35;;;;;;;4.73;60.54;101645.44;8012031;28;20041;-68
2021/11/22 03:51:07;;;;;;;8.27;5.38;;;;;;;4.77;60.93;101653.19;8011147;28;20035;-68
2021/11/22 03:54:58;;;;;;;8.98;6.18;;;;;;;4.78;60.68;101666.13;8010291;28;20393;-68
2021/11/22 03:58:49;;;;;;;10.20;6.00;;;;;;;4.79;60.79;101672.19;8010511;28;20480;-68
2021/11/22 04:02:39;;;;;;;8.48;5.82;;;;;;;4.79;60.83;101685.22;8009799;28;20029;-68
2021/11/22 04:06:30;;;;;;;8.15;5.35;;;;;;;4.80;60.98;101692.13;8010530;28;20025;-68
2021/11/22 04:10:21;;;;;;;7.07;4.63;;;;;;;4.72;60.96;101690.59;8009890;28;20039;-68
2021/11/22 04:14:12;;;;;;;7.00;4.68;;;;;;;4.81;60.76;101701.66;8010174;28;20037;-68
2021/11/22 04:18:04;;;;;;;9.55;4.95;;;;;;;4.83;61.02;101715.47;8010399;28;20025;-68
2021/11/22 04:21:55;;;;;;;5.00;4.50;;;;;;;4.84;60.65;101719.78;8010227;28;20021;-68
2021/11/22 04:25:45;;;;;;;5.68;4.15;;;;;;;4.85;60.72;101719.75;8009694;28;20041;-68
2021/11/22 04:29:36;;;;;;;6.60;4.28;;;;;;;4.82;60.89;101716.34;8010484;28;20033;-68
2021/11/22 04:33:27;;;;;;;4.63;3.88;;;;;;;4.87;60.71;101722.28;8009486;28;20755;-68
2021/11/22 04:37:17;;;;;;;4.97;3.90;;;;;;;4.86;61.13;101734.44;8006305;28;20710;-67
2021/11/22 04:41:08;;;;;;;5.78;4.28;;;;;;;4.87;60.87;101737.91;8009764;28;20469;-68
2021/11/22 04:44:59;;;;;;;6.18;3.63;;;;;;;4.89;60.72;101742.19;8009218;28;20028;-68
2021/11/22 04:48:50;;;;;;;5.40;3.55;;;;;;;4.90;60.87;101756.88;8009779;28;20032;-68
2021/11/22 04:52:41;;;;;;;5.15;3.17;;;;;;;4.83;60.88;101741.50;8007428;28;20040;-68
2021/11/22 04:56:31;;;;;;;3.83;3.42;;;;;;;4.90;60.72;101758.63;8008805;28;20060;-68
2021/11/22 05:00:24;;;;;;;3.42;3.03;;;;;;;4.91;60.88;101758.59;8009388;28;20108;-68
2021/11/22 05:04:15;;;;;;;3.33;2.58;;;;;;;4.92;60.58;101767.28;8008707;28;20064;-67
2021/11/22 05:08:07;;;;;;;3.67;3.25;;;;;;;4.93;60.64;101784.59;8007467;28;20029;-68
2021/11/22 05:11:58;;;;;;;3.58;2.88;;;;;;;4.94;60.73;101781.13;8007777;28;20082;-68
2021/11/22 05:15:49;;;;;;;3.67;3.00;;;;;;;4.96;60.72;101787.97;8008593;28;20625;-68
2021/11/22 05:19:40;;;;;;;3.45;3.00;;;;;;;4.96;60.75;101793.19;8008433;28;20037;-68
2021/11/22 05:23:30;;;;;;;3.42;2.40;;;;;;;4.96;60.68;101798.41;8007652;28;20047;-68
2021/11/22 05:27:25;;;;;;;3.35;2.78;;;;;;;4.96;60.57;101806.22;8006656;28;20049;-68
2021/11/22 05:31:16;;;;;;;4.95;3.20;;;;;;;4.90;60.45;101801.16;8007204;28;20035;-68
2021/11/22 05:35:08;;;;;;;3.92;2.67;;;;;;;4.95;60.58;101821.84;8007475;28;20444;-68
2021/11/22 05:38:58;;;;;;;3.95;3.10;;;;;;;4.95;60.47;101822.72;8007627;28;20363;-68
2021/11/22 05:42:49;;;;;;;3.20;2.90;;;;;;;4.95;60.67;101829.66;8007323;28;20658;-67
2021/11/22 05:46:40;;;;;;;3.20;2.80;;;;;;;4.96;60.69;101839.19;8007231;28;20086;-67
2021/11/22 05:50:31;;;;;;;4.85;2.95;;;;;;;4.96;60.63;101841.81;8007430;28;20033;-68
2021/11/22 05:54:23;;;;;;;3.33;2.38;;;;;;;4.96;60.47;101841.81;8007000;28;21095;-68
2021/11/22 05:58:14;;;;;;;2.58;2.15;;;;;;;4.96;60.43;101850.47;8007476;28;20537;-68
2021/11/22 06:02:05;;;;;;;2.92;2.50;;;;;;;4.93;60.15;101853.16;8006479;28;20094;-67
2021/11/22 06:05:56;;;;;;;4.07;2.97;;;;;;;4.91;60.25;101856.69;8007042;28;20041;-67
2021/11/22 06:09:47;;;;;;;3.38;2.78;;;;;;;4.82;60.23;101849.97;8007181;28;20029;-67
2021/11/22 06:13:37;;;;;;;2.92;2.35;;;;;;;4.86;60.21;101863.75;8006482;28;20032;-67
2021/11/22 06:17:28;;;;;;;5.78;2.67;;;;;;;4.83;59.95;101866.47;8005875;28;20029;-66
2021/11/22 06:21:18;;;;;;;2.70;2.35;;;;;;;4.80;60.12;101869.16;8006550;28;20485;-67
2021/11/22 06:25:10;;;;;;;4.22;2.55;;;;;;;4.76;59.79;101870.97;8004095;28;20052;-67
2021/11/22 06:29:01;;;;;;;3.10;2.15;;;;;;;4.73;60.12;101879.72;7998513;28;20041;-66
2021/11/22 06:32:53;;;;;;;2.60;2.35;;;;;;;4.71;60.00;101891.91;8005083;28;20035;-66
2021/11/22 06:36:43;;;;;;;2.83;2.53;;;;;;;4.71;59.95;101902.34;8005295;28;20037;-66
2021/11/22 06:40:34;;;;;;;3.90;2.60;;;;;;;4.73;60.07;101904.91;8005754;28;20466;-67
2021/11/22 06:44:25;;;;;;;3.90;2.88;;;;;;;4.74;60.04;101906.59;8004559;28;20071;-67
2021/11/22 06:48:15;;;;;;;4.05;2.50;;;;;;;4.77;59.96;101908.28;8004549;28;20560;-67
2021/11/22 06:52:06;;;;;;;4.15;2.78;;;;;;;4.77;59.86;101914.34;8005094;28;20083;-66
2021/11/22 06:55:57;;;;;;;3.67;3.17;;;;;;;4.78;60.07;101923.00;8005465;28;20142;-67
2021/11/22 06:59:48;;;;;;;5.35;3.22;;;;;;;4.78;59.74;101921.25;8005582;28;20676;-66
2021/11/22 07:03:39;;;;;;;5.18;3.33;;;;;;;4.81;60.11;101931.59;8003739;28;20100;-67
2021/11/22 07:07:29;;;;;;;3.63;3.17;;;;;;;4.82;59.84;101938.50;8004773;28;20035;-67
2021/11/22 07:11:20;;;;;;;4.32;3.72;;;;;;;4.84;59.90;101954.94;8004039;28;20028;-67
2021/11/22 07:15:10;;;;;;;6.55;4.20;;;;;;;4.86;59.85;101965.31;8003745;28;20033;-67
2021/11/22 07:19:01;;;;;;;6.13;4.22;;;;;;;4.88;59.87;101977.41;8004728;28;20025;-66
2021/11/22 07:22:52;;;;;;;4.38;3.63;;;;;;;4.89;60.05;101986.09;8004907;28;20063;-67
2021/11/22 07:26:42;;;;;;;6.22;3.38;;;;;;;4.88;59.76;101999.97;8003964;28;20029;-66
2021/11/22 07:30:33;;;;;;;5.35;3.95;;;;;;;4.87;59.77;102000.88;8004133;28;20078;-67
2021/11/22 07:34:24;;;;;;;5.97;4.20;;;;;;;4.86;59.96;102009.56;8004980;28;20040;-66
2021/11/22 07:38:14;;;;;;;5.60;4.13;;;;;;;4.84;59.79;102017.44;8003264;28;20037;-66
2021/11/22 07:42:05;;;;;;;7.50;4.70;;;;;;;4.84;59.89;102020.03;8004537;28;20113;-66
2021/11/22 07:45:55;;;;;;;5.65;4.03;;;;;;;4.84;59.89;102033.06;8004864;28;20116;-66
2021/11/22 07:49:46;;;;;;;6.53;5.10;;;;;;;4.79;59.54;102027.09;8004928;28;20467;-67
2021/11/22 07:53:40;;;;;;;6.88;4.75;;;;;;;4.76;59.80;102032.38;8005171;28;20036;-66
2021/11/22 07:57:31;;;;;;;7.95;5.55;;;;;;;4.82;59.77;102042.63;8010865;28;20040;-66
2021/11/22 08:01:22;;;;;;;6.35;5.28;;;;;;;4.83;59.89;102059.13;8010987;28;20150;-67
2021/11/22 08:05:13;;;;;;;7.10;5.43;;;;;;;4.85;59.96;102060.81;8009410;28;20176;-66
2021/11/22 08:09:12;;;;;;;7.65;5.15;;;;;;;4.86;59.83;102065.09;8009950;28;20498;-66
2021/11/22 08:13:06;;;;;;;6.00;4.90;;;;;;;4.88;59.94;102070.28;8001765;28;20450;-67
2021/11/22 08:16:57;;;;;;;5.63;4.25;;;;;;;4.89;59.90;102085.03;8010537;28;20130;-67
2021/11/22 08:20:47;;;;;;;5.32;4.45;;;;;;;4.92;59.81;102082.34;8010465;28;20125;-67
2021/11/22 08:24:38;;;;;;;6.00;4.88;;;;;;;4.95;59.94;102085.72;8010203;28;20059;-66
2021/11/22 08:28:29;;;;;;;8.13;4.97;;;;;;;4.98;59.91;102092.63;8009673;28;20493;-66
2021/11/22 08:32:19;;;;;;;7.82;4.57;;;;;;;4.98;59.77;102095.22;8003085;28;20037;-66
2021/11/22 08:36:10;;;;;;;4.60;4.07;;;;;;;4.98;59.78;102106.47;8000605;28;20033;-66
2021/11/22 08:40:01;;;;;;;4.72;3.95;;;;;;;4.98;59.64;102116.06;7999816;28;20029;-67
2021/11/22 08:43:51;;;;;;;5.22;4.30;;;;;;;4.97;59.51;102123.03;8006046;28;20027;-67
2021/11/22 08:47:42;;;;;;;5.97;3.58;;;;;;;4.99;59.87;102131.63;8001774;28;20320;-67
2021/11/22 08:51:32;;;;;;;6.53;4.10;;;;;;;4.99;59.51;102133.38;8006294;28;20095;-67
2021/11/22 08:55:23;;;;;;;6.45;4.30;;;;;;;5.03;59.69;102140.22;8009099;28;20074;-67
2021/11/22 08:59:16;;;;;;;5.20;3.92;;;;;;;5.10;59.84;102147.03;8008154;28;20033;-67
2021/11/22 09:03:06;;;;;;;4.43;4.03;;;;;;;5.15;59.77;102151.25;8007818;28;20028;-67
2021/11/22 09:06:57;;;;;;;8.57;4.03;;;;;;;5.18;59.96;102143.41;8008180;28;20123;-67
2021/11/22 09:10:48;;;;;;;5.35;4.25;;;;;;;5.30;59.98;102147.44;8008747;28;20025;-66
2021/11/22 09:14:39;;;;;;;4.82;4.18;;;;;;;5.31;59.50;102166.56;8008154;28;20029;-67
2021/11/22 09:18:30;;;;;;;5.55;4.70;;;;;;;5.28;59.11;102171.81;8008642;28;20029;-67
2021/11/22 09:22:20;;;;;;;6.80;4.38;;;;;;;5.15;59.15;102161.69;8007470;28;20060;-67
2021/11/22 09:26:11;;;;;;;4.55;3.58;;;;;;;5.19;59.09;102171.13;8007692;28;20459;-67
2021/11/22 09:30:03;;;;;;;6.22;3.97;;;;;;;5.19;59.29;102172.88;8007428;28;20024;-67
2021/11/22 09:33:54;;;;;;;5.00;4.20;;;;;;;5.18;59.14;102182.47;8004959;28;20033;-68
2021/11/22 09:37:44;;;;;;;5.95;4.15;;;;;;;5.20;59.29;102185.03;8005978;28;20039;-66
2021/11/22 09:41:35;;;;;;;5.70;4.20;;;;;;;5.25;59.47;102200.56;8001670;28;20040;-66
2021/11/22 09:45:28;;;;;;;5.50;4.03;;;;;;;5.30;59.32;102196.97;8007507;28;20057;-66
2021/11/22 09:49:19;;;;;;;4.68;3.95;;;;;;;5.40;59.30;102205.41;8006960;28;20053;-66
2021/11/22 09:53:10;;;;;;;4.35;3.95;;;;;;;5.47;59.27;102209.59;8006576;28;20032;-67
2021/11/22 09:57:01;;;;;;;5.43;4.35;;;;;;;5.50;59.24;102217.34;8006438;28;20039;-66
2021/11/22 10:00:55;;;;;;;3.97;3.58;;;;;;;5.47;59.40;102215.66;8005198;28;20025;-67
2021/11/22 10:04:46;;;;;;;5.15;3.95;;;;;;;5.45;59.05;102219.19;8004457;28;20099;-66
2021/11/22 10:08:39;;;;;;;4.95;3.88;;;;;;;5.40;59.07;102211.47;7989594;28;20036;-66
2021/11/22 10:12:31;;;;;;;4.70;3.50;;;;;;;5.38;58.97;102208.06;8002332;28;20028;-66
2021/11/22 10:16:24;;;;;;;4.18;3.65;;;;;;;5.34;58.90;102216.84;8000913;28;20758;-67
2021/11/22 10:20:17;;;;;;;4.47;3.75;;;;;;;5.30;58.95;102220.41;8001266;28;20044;-67
2021/11/22 10:24:10;;;;;;;5.80;3.53;;;;;;;5.35;58.75;102221.16;7998886;28;20036;-67
2021/11/22 10:28:05;;;;;;;4.15;3.75;;;;;;;5.32;58.86;102229.03;7989546;28;20063;-66
2021/11/22 10:32:02;;;;;;;6.25;3.53;;;;;;;5.34;58.97;102229.88;7998951;28;20029;-64
2021/11/22 10:35:56;;;;;;;6.70;3.78;;;;;;;5.34;58.69;102236.84;7994179;28;20028;-65
2021/11/22 10:39:46;;;;;;;3.90;3.40;;;;;;;5.33;58.77;102235.09;7991762;28;20076;-66
2021/11/22 10:43:49;;;;;;;4.82;3.50;;;;;;;5.34;59.08;102232.47;7997506;28;20037;-65
2021/11/22 10:47:54;;;;;;;4.45;3.65;;;;;;;5.37;58.75;102235.00;7995671;28;20112;-66
2021/11/22 11:04:08;;;;;;;3.78;2.97;;;;;;;3.69;62.17;102244.31;8209371;27;24480;-65
2021/11/22 11:08:02;;;;;;;4.07;3.05;;;;;;;3.99;61.71;102229.94;8155587;27;20130;-65
2021/11/22 11:12:00;;;;;;;3.72;2.70;;;;;;;4.28;60.97;102227.69;8153146;27;20026;-66
2021/11/22 11:16:06;;;;;;;;;;;;;;;4.41;60.68;102227.44;8143484;27;20035;-65
2021/11/22 11:20:04;;;;;;;3.75;2.70;;;;;;;4.63;60.21;102241.78;8159197;27;20291;-64
2021/11/22 11:23:57;;;;;;;3.65;2.55;;;;;;;4.76;59.99;102238.03;8156571;27;20122;-66
2021/11/22 11:27:48;;;;;;;4.80;2.65;;;;;;;4.81;59.84;102231.00;8160217;27;20669;-66
2021/11/22 11:31:40;;;;;;;3.72;2.72;;;;;;;4.97;59.69;102245.41;8163549;27;20042;-66
2021/11/22 11:35:33;;;;;;;2.38;2.05;;;;;;;5.05;59.29;102251.31;8162420;27;20030;-66
2021/11/22 11:39:23;;;;;;;3.22;2.45;;;;;;;5.10;59.13;102251.22;8161031;27;20372;-66
2021/11/22 11:43:29;;;;;;;3.35;2.60;;;;;;;5.11;59.06;102251.19;8160897;27;20475;-66
2021/11/22 11:47:38;;;;;;;3.00;2.50;;;;;;;5.12;58.97;102246.81;8155204;27;20031;-66
2021/11/22 11:51:38;;;;;;;2.78;2.30;;;;;;;5.14;58.78;102245.06;8154651;27;20037;-66
2021/11/22 11:55:29;;;;;;;3.45;2.65;;;;;;;5.17;58.88;102252.84;8158224;27;20031;-66
2021/11/22 11:59:36;;;;;;;4.45;2.42;;;;;;;5.22;58.87;102250.13;8153677;27;20115;-66
2021/11/22 12:03:29;;;;;;;6.10;2.83;;;;;;;5.27;59.06;102243.91;8158353;27;20104;-66
2021/11/22 12:07:31;;;;;;;3.78;2.70;;;;;;;5.35;59.27;102244.63;8160352;27;20038;-66
2021/11/22 12:11:33;;;;;;;3.67;2.85;;;;;;;5.42;58.97;102243.59;8160155;27;20035;-66
2021/11/22 12:15:30;;;;;;;5.30;2.70;;;;;;;5.48;58.81;102250.38;8138517;27;20618;-66
2021/11/22 12:19:33;;;;;;;3.17;2.47;;;;;;;5.47;58.39;102249.56;8139494;27;20047;-66
2021/11/22 12:23:28;;;;;;;3.25;2.42;;;;;;;5.46;58.48;102250.44;8138698;27;20027;-66
2021/11/22 12:27:28;;;;;;;3.38;2.22;;;;;;;5.45;58.21;102247.84;8138818;27;20035;-66
2021/11/22 12:31:25;;;;;;;2.97;2.13;;;;;;;5.40;58.40;102247.97;8138538;27;20062;-66
2021/11/22 12:35:16;;;;;;;4.38;2.25;;;;;;;5.42;58.39;102253.16;8138496;27;20070;-66
2021/11/22 12:39:12;;;;;;;4.20;2.30;;;;;;;5.44;58.40;102254.81;8138661;27;20480;-66
2021/11/22 12:43:03;;;;;;;2.70;1.90;;;;;;;5.44;58.10;102256.56;8137794;27;20403;-66
2021/11/22 12:46:56;;;;;;;3.72;2.30;;;;;;;5.45;58.27;102258.28;8138649;27;20090;-66
2021/11/22 12:50:59;;;;;;;2.58;1.98;;;;;;;5.44;58.03;102254.81;8138176;27;20023;-66
2021/11/22 12:55:19;;;;;;;2.28;1.88;;;;;;;5.46;57.93;102270.44;8137347;27;20037;-66
2021/11/22 12:59:22;;;;;;;3.15;2.05;;;;;;;5.47;58.19;102264.34;8138118;27;20062;-65
2021/11/22 13:03:16;;;;;;;2.10;1.60;;;;;;;5.48;57.95;102273.84;8135131;27;20039;-66
2021/11/22 13:07:35;;;;;;;3.33;2.30;;;;;;;5.47;58.01;102272.16;8130212;27;20035;-66
2021/11/22 13:11:29;;;;;;;2.85;1.65;;;;;;;5.49;57.97;102275.56;8133873;27;20035;-66
2021/11/22 13:15:35;;;;;;;2.63;1.40;;;;;;;5.48;57.71;102271.22;8137015;27;20092;-66
2021/11/22 13:19:26;;;;;;;2.97;1.40;;;;;;;5.49;57.71;102273.81;8137582;27;20032;-66
2021/11/22 13:23:26;;;;;;;1.80;1.45;;;;;;;5.50;57.50;102280.75;8136187;27;20034;-66
2021/11/22 13:27:17;;;;;;;2.13;1.60;;;;;;;5.52;57.78;102291.13;8136969;27;20058;-65
2021/11/22 13:31:09;;;;;;;2.28;1.77;;;;;;;5.52;57.60;102289.38;8136811;27;20700;-65
2021/11/22 13:34:59;;;;;;;3.63;1.30;;;;;;;5.52;57.46;102286.78;8136241;27;20038;-66
2021/11/22 13:38:50;;;;;;;1.40;1.30;;;;;;;5.52;57.47;102284.16;8137591;27;20118;-65
2021/11/22 13:42:41;;;;;;;2.40;1.38;;;;;;;5.53;57.57;102287.63;8136030;27;20034;-66
2021/11/22 13:46:35;;;;;;;4.38;1.50;;;;;;;5.51;57.55;102287.69;8135046;27;20130;-65
2021/11/22 13:50:27;;;;;;;2.90;1.88;;;;;;;5.54;57.68;102297.19;8135657;27;20027;-65
2021/11/22 13:54:21;;;;;;;6.65;1.60;;;;;;;5.51;57.52;102290.28;8135810;27;20035;-66
2021/11/22 13:58:14;;;;;;;3.85;1.30;;;;;;;5.57;57.59;102297.09;8136427;27;20063;-65
2021/11/22 14:02:13;;;;;;;2.17;1.65;;;;;;;5.56;57.32;102295.38;8135416;27;20031;-66
2021/11/22 14:06:03;;;;;;;2.42;1.75;;;;;;;5.56;57.16;102300.59;8136008;27;20053;-66
2021/11/22 14:09:55;;;;;;;1.35;1.00;;;;;;;5.57;57.07;102300.56;8135623;27;20031;-66
2021/11/22 14:13:46;;;;;;;2.03;1.10;;;;;;;5.57;56.86;102305.78;8135118;27;20042;-66
2021/11/22 14:17:37;;;;;;;1.20;0.90;;;;;;;5.58;57.35;102311.84;8135588;27;20121;-65
2021/11/22 14:21:34;;;;;;;4.07;1.00;;;;;;;5.59;56.69;102313.56;8135850;27;20133;-65
2021/11/22 14:25:28;;;;;;;3.50;1.07;;;;;;;5.57;57.16;102311.00;8135296;27;20113;-66
2021/11/22 14:29:27;;;;;;;1.27;0.93;;;;;;;5.58;56.82;102306.63;8135500;27;20839;-66
2021/11/22 14:33:27;;;;;;;0.70;0.70;;;;;;;5.56;56.85;102318.84;8134889;27;20031;-66
2021/11/22 14:37:18;;;;;;;2.33;1.08;;;;;;;5.55;56.53;102328.44;8135608;27;20117;-65
2021/11/22 14:41:08;;;;;;;1.23;0.90;;;;;;;5.53;56.56;102325.00;8134550;27;20521;-66
2021/11/22 14:44:59;;;;;;;1.20;0.88;;;;;;;5.53;56.60;102321.53;8134507;27;20043;-65
2021/11/22 14:48:52;;;;;;;2.45;0.80;;;;;;;5.48;56.43;102328.56;8134389;27;20113;-66
2021/11/22 14:52:43;;;;;;;2.38;0.80;;;;;;;5.50;56.56;102334.63;8134265;27;20483;-66
2021/11/22 14:56:42;;;;;;;1.27;0.82;;;;;;;5.50;56.39;102332.03;8126161;27;20058;-65
2021/11/22 15:00:42;;;;;;;1.00;0.90;;;;;;;5.49;56.43;102332.91;8129626;28;20079;-66
2021/11/22 15:04:34;;;;;;;2.08;1.00;;;;;;;5.46;56.20;102330.38;8134085;28;20034;-65
2021/11/22 15:08:28;;;;;;;1.70;1.10;;;;;;;5.44;56.41;102332.13;8129382;28;20180;-65
2021/11/22 15:12:28;;;;;;;1.52;1.20;;;;;;;5.41;56.26;102338.28;8129393;28;20023;-65
2021/11/22 15:16:18;;;;;;;1.23;1.00;;;;;;;5.39;56.29;102341.84;8131476;28;20035;-66
2021/11/22 15:20:11;;;;;;;1.63;1.10;;;;;;;5.35;56.01;102348.00;8134065;28;20023;-66
2021/11/22 15:24:01;;;;;;;1.65;1.17;;;;;;;5.30;55.86;102348.09;8129314;28;20043;-65
2021/11/22 15:27:53;;;;;;;1.90;1.30;;;;;;;5.25;56.09;102355.13;8133937;28;20122;-66
2021/11/22 15:31:53;;;;;;;2.28;1.45;;;;;;;5.21;56.13;102363.03;8133403;28;20047;-65
2021/11/22 15:35:44;;;;;;;1.55;1.15;;;;;;;5.15;55.59;102362.28;8133639;28;20039;-65
2021/11/22 15:39:44;;;;;;;1.60;1.10;;;;;;;5.08;55.84;102370.22;8131515;28;20031;-65
2021/11/22 15:43:34;;;;;;;2.58;1.10;;;;;;;5.01;55.74;102373.81;8128801;28;20023;-65
2021/11/22 15:47:25;;;;;;;3.80;1.70;;;;;;;4.94;55.89;102373.06;8135201;27;20039;-66
2021/11/22 15:51:16;;;;;;;2.13;1.00;;;;;;;4.88;55.76;102369.72;8139691;27;20019;-66
2021/11/22 15:55:08;;;;;;;3.10;1.50;;;;;;;4.82;55.60;102375.91;8139699;27;20122;-66
2021/11/22 15:58:59;;;;;;;1.10;1.00;;;;;;;4.76;55.50;102378.63;8139555;27;20034;-65
2021/11/22 16:02:50;;;;;;;4.70;1.10;;;;;;;4.71;55.74;102383.06;8138513;27;20039;-65
2021/11/22 16:06:42;;;;;;;4.50;1.30;;;;;;;4.67;55.82;102384.00;8137606;27;20034;-66
2021/11/22 16:10:33;;;;;;;1.35;1.00;;;;;;;4.64;55.97;102389.25;8138679;27;20049;-65
2021/11/22 16:14:24;;;;;;;2.10;1.20;;;;;;;4.61;55.76;102390.16;8103259;27;20476;-63
2021/11/22 16:18:14;;;;;;;5.75;1.38;;;;;;;4.58;55.78;102397.16;8138274;27;20042;-67
2021/11/22 16:22:05;;;;;;;2.85;1.35;;;;;;;4.51;55.62;102392.94;8137964;27;20420;-66
2021/11/22 16:25:56;;;;;;;2.33;1.40;;;;;;;4.49;55.73;102399.91;8125167;27;20044;-66
2021/11/22 16:29:47;;;;;;;2.53;1.33;;;;;;;4.44;55.79;102402.59;8138074;27;20066;-64
2021/11/22 16:33:38;;;;;;;2.08;1.20;;;;;;;4.36;55.40;102401.03;8133018;27;20024;-67
2021/11/22 16:37:28;;;;;;;2.45;1.08;;;;;;;4.31;55.28;102405.44;8137773;27;20106;-66
2021/11/22 16:41:19;;;;;;;3.60;1.20;;;;;;;4.24;55.58;102418.53;8137392;27;20035;-66
2021/11/22 16:45:10;;;;;;;2.75;1.38;;;;;;;4.17;55.45;102418.63;8136538;27;20208;-66
2021/11/22 16:49:00;;;;;;;6.40;1.20;;;;;;;4.11;55.47;102416.16;8134236;27;20035;-66
2021/11/22 16:52:51;;;;;;;1.83;1.27;;;;;;;4.02;55.34;102419.75;8134468;27;20031;-65
2021/11/22 16:56:43;;;;;;;2.53;1.50;;;;;;;3.92;55.28;102420.72;8131086;27;20130;-64
2021/11/22 17:00:35;;;;;;;1.73;1.58;;;;;;;3.90;55.38;102435.50;8135850;27;20031;-66
2021/11/22 17:04:26;;;;;;;3.70;1.40;;;;;;;3.80;55.30;102429.56;8135318;27;20139;-66
2021/11/22 17:08:16;;;;;;;1.73;1.40;;;;;;;3.76;55.14;102435.69;8135252;27;20522;-65
2021/11/22 17:12:10;;;;;;;3.90;1.50;;;;;;;3.71;55.39;102437.47;8133860;27;20027;-67
2021/11/22 17:16:00;;;;;;;2.08;1.48;;;;;;;3.63;55.60;102444.50;8135065;27;20058;-66
2021/11/22 17:19:51;;;;;;;4.75;2.70;;;;;;;3.58;55.22;102446.31;8136485;27;20053;-65
2021/11/22 17:23:42;;;;;;;7.55;2.92;;;;;;;3.53;55.34;102447.25;8135938;27;20015;-66
2021/11/22 17:27:33;;;;;;;3.50;2.40;;;;;;;3.47;55.27;102457.69;8132027;27;20035;-66
2021/11/22 17:31:24;;;;;;;5.15;2.85;;;;;;;3.40;55.27;102451.72;8135119;27;20023;-65
2021/11/22 17:35:16;;;;;;;3.67;2.35;;;;;;;3.34;55.21;102457.84;8134259;27;20046;-65
2021/11/22 17:39:06;;;;;;;5.85;3.08;;;;;;;3.23;55.51;102449.28;8134028;27;20027;-66
2021/11/22 17:42:58;;;;;;;3.75;2.45;;;;;;;3.24;55.25;102465.72;8134398;27;20109;-66
2021/11/22 17:46:50;;;;;;;3.30;1.92;;;;;;;3.20;55.22;102464.88;8132722;27;20035;-66
2021/11/22 17:50:41;;;;;;;2.72;2.05;;;;;;;3.15;55.12;102466.69;8131556;27;20090;-69
2021/11/22 17:54:32;;;;;;;2.72;1.70;;;;;;;3.11;55.04;102469.31;8130980;27;20041;-65
2021/11/22 17:58:24;;;;;;;2.35;1.77;;;;;;;3.05;55.32;102480.63;8134657;27;20555;-69
2021/11/22 18:02:14;;;;;;;3.28;1.70;;;;;;;2.97;55.21;102468.56;8129806;27;20038;-68
2021/11/22 18:06:08;;;;;;;2.80;1.90;;;;;;;2.97;55.37;102486.75;8133785;27;20035;-66
2021/11/22 18:09:58;;;;;;;4.05;1.92;;;;;;;2.94;55.03;102486.78;8132679;27;20488;-70
2021/11/22 18:13:49;;;;;;;4.20;2.00;;;;;;;2.88;55.53;102491.16;8133598;27;20037;-71
2021/11/22 18:17:40;;;;;;;2.75;1.88;;;;;;;2.84;55.43;102492.06;8117894;27;20031;-70
2021/11/22 18:21:34;;;;;;;5.00;1.63;;;;;;;2.80;55.25;102492.09;8133252;27;20058;-70
2021/11/22 18:25:25;;;;;;;1.83;1.60;;;;;;;2.76;55.43;102492.97;8131683;27;20058;-70
2021/11/22 18:29:16;;;;;;;2.20;1.73;;;;;;;2.72;55.32;102502.53;8112376;27;20361;-71